sensor_id;sensor_type;location;lat;lon;timestamp;temperature;humidity
1538;DHT22;12022;52.266;10.522;2022-07-04T00:01:45;18.50;99.90
1538;DHT22;12022;52.266;10.522;2022-07-04T00:04:12;18.50;99.90
1538;DHT22;12022;52.266;10.522;2022-07-04T00:06:39;18.40;99.90
1538;DHT22;12022;52.266;10.522;2022-07-04T00:09:06;18.50;99.90
1538;DHT22;12022;52.266;10.522;2022-07-04T00:11:33;18.40;99.90
1538;DHT22;12022;52.266;10.522;2022-07-04T00:14:00;18.40;99.90
1538;DHT22;12022;52.266;10.522;2022-07-04T00:16:28;18.40;99.90
1538;DHT22;12022;52.266;10.522;2022-07-04T00:18:55;18.30;99.90
1538;DHT22;12022;52.266;10.522;2022-07-04T00:21:22;18.30;99.90
1538;DHT22;12022;52.266;10.522;2022-07-04T00:23:49;18.30;99.90
1538;DHT22;12022;52.266;10.522;2022-07-04T00:26:16;17.90;99.90
1538;DHT22;12022;52.266;10.522;2022-07-04T00:28:43;18.30;99.90
1538;DHT22;12022;52.266;10.522;2022-07-04T00:31:10;18.30;99.90
1538;DHT22;12022;52.266;10.522;2022-07-04T00:33:37;18.30;99.90
1538;DHT22;12022;52.266;10.522;2022-07-04T00:36:05;18.20;99.90
1538;DHT22;12022;52.266;10.522;2022-07-04T00:38:32;18.20;99.90
1538;DHT22;12022;52.266;10.522;2022-07-04T00:40:59;18.20;99.90
1538;DHT22;12022;52.266;10.522;2022-07-04T00:43:27;18.10;99.90
1538;DHT22;12022;52.266;10.522;2022-07-04T00:45:55;18.10;99.90
1538;DHT22;12022;52.266;10.522;2022-07-04T00:48:22;18.10;99.90
1538;DHT22;12022;52.266;10.522;2022-07-04T00:50:49;18.10;99.90
1538;DHT22;12022;52.266;10.522;2022-07-04T00:53:19;18.10;99.90
1538;DHT22;12022;52.266;10.522;2022-07-04T00:55:47;18.10;99.90
1538;DHT22;12022;52.266;10.522;2022-07-04T00:58:14;18.00;99.90
1538;DHT22;12022;52.266;10.522;2022-07-04T01:00:41;18.00;99.90
1538;DHT22;12022;52.266;10.522;2022-07-04T01:03:08;18.00;99.90
1538;DHT22;12022;52.266;10.522;2022-07-04T01:05:36;18.00;99.90
1538;DHT22;12022;52.266;10.522;2022-07-04T01:08:04;17.90;99.90
1538;DHT22;12022;52.266;10.522;2022-07-04T01:10:31;17.90;99.90
1538;DHT22;12022;52.266;10.522;2022-07-04T01:12:58;17.90;99.90
1538;DHT22;12022;52.266;10.522;2022-07-04T01:15:25;17.90;99.90
1538;DHT22;12022;52.266;10.522;2022-07-04T01:17:52;17.80;99.90
1538;DHT22;12022;52.266;10.522;2022-07-04T01:20:19;17.80;99.90
1538;DHT22;12022;52.266;10.522;2022-07-04T01:22:46;17.70;99.90
1538;DHT22;12022;52.266;10.522;2022-07-04T01:25:13;17.70;99.90
1538;DHT22;12022;52.266;10.522;2022-07-04T01:27:41;17.60;99.90
1538;DHT22;12022;52.266;10.522;2022-07-04T01:30:08;17.60;99.90
1538;DHT22;12022;52.266;10.522;2022-07-04T01:32:35;17.60;99.90
1538;DHT22;12022;52.266;10.522;2022-07-04T01:35:02;17.60;99.90
1538;DHT22;12022;52.266;10.522;2022-07-04T01:37:30;17.60;99.90
1538;DHT22;12022;52.266;10.522;2022-07-04T01:39:56;17.60;99.90
1538;DHT22;12022;52.266;10.522;2022-07-04T01:42:23;17.50;99.90
1538;DHT22;12022;52.266;10.522;2022-07-04T01:44:50;17.50;99.90
1538;DHT22;12022;52.266;10.522;2022-07-04T01:47:17;17.50;99.90
1538;DHT22;12022;52.266;10.522;2022-07-04T01:49:44;17.50;99.90
1538;DHT22;12022;52.266;10.522;2022-07-04T01:52:12;17.40;99.90
1538;DHT22;12022;52.266;10.522;2022-07-04T01:54:40;17.50;99.90
1538;DHT22;12022;52.266;10.522;2022-07-04T01:57:07;17.40;99.90
1538;DHT22;12022;52.266;10.522;2022-07-04T01:59:34;17.40;99.90
1538;DHT22;12022;52.266;10.522;2022-07-04T02:02:19;17.30;99.90
1538;DHT22;12022;52.266;10.522;2022-07-04T02:04:46;17.30;99.90
1538;DHT22;12022;52.266;10.522;2022-07-04T02:07:14;17.30;99.90
1538;DHT22;12022;52.266;10.522;2022-07-04T02:09:41;17.30;99.90
1538;DHT22;12022;52.266;10.522;2022-07-04T02:12:08;17.20;99.90
1538;DHT22;12022;52.266;10.522;2022-07-04T02:14:53;17.20;99.90
1538;DHT22;12022;52.266;10.522;2022-07-04T02:17:20;17.10;99.90
1538;DHT22;12022;52.266;10.522;2022-07-04T02:19:48;17.10;99.90
1538;DHT22;12022;52.266;10.522;2022-07-04T02:22:15;17.10;99.90
1538;DHT22;12022;52.266;10.522;2022-07-04T02:24:42;17.00;99.90
1538;DHT22;12022;52.266;10.522;2022-07-04T02:27:09;17.00;99.90
1538;DHT22;12022;52.266;10.522;2022-07-04T02:29:36;17.00;99.90
1538;DHT22;12022;52.266;10.522;2022-07-04T02:32:04;17.00;99.90
1538;DHT22;12022;52.266;10.522;2022-07-04T02:34:31;17.00;99.90
1538;DHT22;12022;52.266;10.522;2022-07-04T02:36:58;17.00;99.90
1538;DHT22;12022;52.266;10.522;2022-07-04T02:39:25;16.90;99.90
1538;DHT22;12022;52.266;10.522;2022-07-04T02:41:52;16.90;99.90
1538;DHT22;12022;52.266;10.522;2022-07-04T02:44:23;16.90;99.90
1538;DHT22;12022;52.266;10.522;2022-07-04T02:46:50;16.80;99.90
1538;DHT22;12022;52.266;10.522;2022-07-04T02:49:17;16.90;99.90
1538;DHT22;12022;52.266;10.522;2022-07-04T02:51:44;16.90;99.90
1538;DHT22;12022;52.266;10.522;2022-07-04T02:54:11;16.80;99.90
1538;DHT22;12022;52.266;10.522;2022-07-04T02:56:39;16.80;99.90
1538;DHT22;12022;52.266;10.522;2022-07-04T02:59:06;16.80;99.90
1538;DHT22;12022;52.266;10.522;2022-07-04T03:01:33;16.80;99.90
1538;DHT22;12022;52.266;10.522;2022-07-04T03:04:00;16.80;99.90
1538;DHT22;12022;52.266;10.522;2022-07-04T03:06:27;16.70;99.90
1538;DHT22;12022;52.266;10.522;2022-07-04T03:08:55;16.70;99.90
1538;DHT22;12022;52.266;10.522;2022-07-04T03:11:22;16.70;99.90
1538;DHT22;12022;52.266;10.522;2022-07-04T03:13:49;16.70;99.90
1538;DHT22;12022;52.266;10.522;2022-07-04T03:16:16;16.70;99.90
1538;DHT22;12022;52.266;10.522;2022-07-04T03:18:43;16.70;99.90
1538;DHT22;12022;52.266;10.522;2022-07-04T03:21:10;16.70;99.90
1538;DHT22;12022;52.266;10.522;2022-07-04T03:23:38;16.70;99.90
1538;DHT22;12022;52.266;10.522;2022-07-04T03:26:05;16.70;99.90
1538;DHT22;12022;52.266;10.522;2022-07-04T03:28:32;16.70;99.90
1538;DHT22;12022;52.266;10.522;2022-07-04T03:30:59;16.70;99.90
1538;DHT22;12022;52.266;10.522;2022-07-04T03:33:26;16.70;99.90
1538;DHT22;12022;52.266;10.522;2022-07-04T03:35:53;16.70;99.90
1538;DHT22;12022;52.266;10.522;2022-07-04T03:38:20;16.70;99.90
1538;DHT22;12022;52.266;10.522;2022-07-04T03:40:47;16.80;99.90
1538;DHT22;12022;52.266;10.522;2022-07-04T03:43:14;16.70;99.90
1538;DHT22;12022;52.266;10.522;2022-07-04T03:45:41;16.80;99.90
1538;DHT22;12022;52.266;10.522;2022-07-04T03:48:08;16.80;99.90
1538;DHT22;12022;52.266;10.522;2022-07-04T03:50:35;16.90;99.90
1538;DHT22;12022;52.266;10.522;2022-07-04T03:53:02;16.90;99.90
1538;DHT22;12022;52.266;10.522;2022-07-04T03:55:29;17.10;99.90
1538;DHT22;12022;52.266;10.522;2022-07-04T03:57:56;17.20;99.90
1538;DHT22;12022;52.266;10.522;2022-07-04T04:00:23;17.40;99.90
1538;DHT22;12022;52.266;10.522;2022-07-04T04:02:50;17.90;99.90
1538;DHT22;12022;52.266;10.522;2022-07-04T04:05:17;18.70;99.90
1538;DHT22;12022;52.266;10.522;2022-07-04T04:07:57;19.60;99.90
1538;DHT22;12022;52.266;10.522;2022-07-04T04:10:25;20.50;99.90
1538;DHT22;12022;52.266;10.522;2022-07-04T04:12:53;21.30;99.90
1538;DHT22;12022;52.266;10.522;2022-07-04T04:15:20;21.90;99.90
1538;DHT22;12022;52.266;10.522;2022-07-04T04:17:47;22.10;99.90
1538;DHT22;12022;52.266;10.522;2022-07-04T04:20:14;22.00;99.90
1538;DHT22;12022;52.266;10.522;2022-07-04T04:22:41;21.70;99.90
1538;DHT22;12022;52.266;10.522;2022-07-04T04:25:08;21.50;99.90
1538;DHT22;12022;52.266;10.522;2022-07-04T04:27:35;21.40;99.90
1538;DHT22;12022;52.266;10.522;2022-07-04T04:30:03;21.30;99.90
1538;DHT22;12022;52.266;10.522;2022-07-04T04:32:30;21.20;99.90
1538;DHT22;12022;52.266;10.522;2022-07-04T04:34:57;21.10;99.90
1538;DHT22;12022;52.266;10.522;2022-07-04T04:37:24;21.10;99.90
1538;DHT22;12022;52.266;10.522;2022-07-04T04:39:51;21.10;99.90
1538;DHT22;12022;52.266;10.522;2022-07-04T04:42:18;21.10;99.90
1538;DHT22;12022;52.266;10.522;2022-07-04T04:44:45;21.10;99.90
1538;DHT22;12022;52.266;10.522;2022-07-04T04:47:12;21.20;99.90
1538;DHT22;12022;52.266;10.522;2022-07-04T04:49:39;21.60;99.90
1538;DHT22;12022;52.266;10.522;2022-07-04T04:52:07;22.30;99.90
1538;DHT22;12022;52.266;10.522;2022-07-04T04:54:34;22.50;99.90
1538;DHT22;12022;52.266;10.522;2022-07-04T04:57:01;23.20;99.90
1538;DHT22;12022;52.266;10.522;2022-07-04T04:59:29;24.30;99.90
1538;DHT22;12022;52.266;10.522;2022-07-04T05:01:59;25.60;99.90
1538;DHT22;12022;52.266;10.522;2022-07-04T05:04:26;26.70;99.90
1538;DHT22;12022;52.266;10.522;2022-07-04T05:06:53;27.70;99.90
1538;DHT22;12022;52.266;10.522;2022-07-04T05:09:20;28.70;99.50
1538;DHT22;12022;52.266;10.522;2022-07-04T05:11:48;29.70;98.10
1538;DHT22;12022;52.266;10.522;2022-07-04T05:14:15;30.60;96.70
1538;DHT22;12022;52.266;10.522;2022-07-04T05:16:43;31.60;95.10
1538;DHT22;12022;52.266;10.522;2022-07-04T05:19:10;32.40;93.00
1538;DHT22;12022;52.266;10.522;2022-07-04T05:21:37;33.10;91.30
1538;DHT22;12022;52.266;10.522;2022-07-04T05:24:04;33.70;87.30
1538;DHT22;12022;52.266;10.522;2022-07-04T05:26:31;34.20;85.10
1538;DHT22;12022;52.266;10.522;2022-07-04T05:28:58;34.60;82.60
1538;DHT22;12022;52.266;10.522;2022-07-04T05:31:25;35.20;82.20
1538;DHT22;12022;52.266;10.522;2022-07-04T05:33:53;35.70;78.40
1538;DHT22;12022;52.266;10.522;2022-07-04T05:36:22;36.00;74.50
1538;DHT22;12022;52.266;10.522;2022-07-04T05:38:55;36.60;73.90
1538;DHT22;12022;52.266;10.522;2022-07-04T05:41:22;37.30;71.80
1538;DHT22;12022;52.266;10.522;2022-07-04T05:43:49;37.70;68.60
1538;DHT22;12022;52.266;10.522;2022-07-04T05:46:23;38.00;65.20
1538;DHT22;12022;52.266;10.522;2022-07-04T05:48:50;38.30;63.10
1538;DHT22;12022;52.266;10.522;2022-07-04T05:51:17;38.60;61.20
1538;DHT22;12022;52.266;10.522;2022-07-04T05:53:44;38.90;61.20
1538;DHT22;12022;52.266;10.522;2022-07-04T05:56:11;39.30;58.80
1538;DHT22;12022;52.266;10.522;2022-07-04T05:58:38;39.60;58.50
1538;DHT22;12022;52.266;10.522;2022-07-04T06:01:05;39.90;56.30
1538;DHT22;12022;52.266;10.522;2022-07-04T06:03:34;40.30;56.50
1538;DHT22;12022;52.266;10.522;2022-07-04T06:06:04;40.50;55.70
1538;DHT22;12022;52.266;10.522;2022-07-04T06:08:31;41.00;54.50
1538;DHT22;12022;52.266;10.522;2022-07-04T06:10:58;41.20;53.90
1538;DHT22;12022;52.266;10.522;2022-07-04T06:13:25;40.60;52.80
1538;DHT22;12022;52.266;10.522;2022-07-04T06:15:54;39.90;52.20
1538;DHT22;12022;52.266;10.522;2022-07-04T06:18:21;39.60;53.30
1538;DHT22;12022;52.266;10.522;2022-07-04T06:20:48;40.10;52.90
1538;DHT22;12022;52.266;10.522;2022-07-04T06:23:15;40.40;52.60
1538;DHT22;12022;52.266;10.522;2022-07-04T06:25:42;40.70;51.50
1538;DHT22;12022;52.266;10.522;2022-07-04T06:28:09;40.00;50.60
1538;DHT22;12022;52.266;10.522;2022-07-04T06:30:56;39.00;53.50
1538;DHT22;12022;52.266;10.522;2022-07-04T06:33:23;38.50;53.70
1538;DHT22;12022;52.266;10.522;2022-07-04T06:35:50;38.30;53.30
1538;DHT22;12022;52.266;10.522;2022-07-04T06:38:27;37.30;53.00
1538;DHT22;12022;52.266;10.522;2022-07-04T06:40:56;36.10;53.30
1538;DHT22;12022;52.266;10.522;2022-07-04T06:43:25;35.30;54.50
1538;DHT22;12022;52.266;10.522;2022-07-04T06:45:52;34.40;54.90
1538;DHT22;12022;52.266;10.522;2022-07-04T06:48:19;33.70;56.40
1538;DHT22;12022;52.266;10.522;2022-07-04T06:50:47;33.70;59.30
1538;DHT22;12022;52.266;10.522;2022-07-04T06:53:14;34.40;55.60
1538;DHT22;12022;52.266;10.522;2022-07-04T06:55:42;33.90;55.40
1538;DHT22;12022;52.266;10.522;2022-07-04T06:58:09;32.90;58.60
1538;DHT22;12022;52.266;10.522;2022-07-04T07:00:36;32.00;58.40
1538;DHT22;12022;52.266;10.522;2022-07-04T07:03:04;31.30;60.40
1538;DHT22;12022;52.266;10.522;2022-07-04T07:05:34;31.80;61.20
1538;DHT22;12022;52.266;10.522;2022-07-04T07:08:24;33.50;56.00
1538;DHT22;12022;52.266;10.522;2022-07-04T07:10:51;35.60;55.50
1538;DHT22;12022;52.266;10.522;2022-07-04T07:13:18;37.20;52.30
1538;DHT22;12022;52.266;10.522;2022-07-04T07:15:45;38.60;52.90
1538;DHT22;12022;52.266;10.522;2022-07-04T07:18:12;39.70;50.10
1538;DHT22;12022;52.266;10.522;2022-07-04T07:20:39;39.30;51.00
1538;DHT22;12022;52.266;10.522;2022-07-04T07:23:06;38.30;49.80
1538;DHT22;12022;52.266;10.522;2022-07-04T07:25:33;36.70;50.30
1538;DHT22;12022;52.266;10.522;2022-07-04T07:28:00;35.50;51.00
1538;DHT22;12022;52.266;10.522;2022-07-04T07:30:27;34.30;51.70
1538;DHT22;12022;52.266;10.522;2022-07-04T07:32:54;33.20;52.60
1538;DHT22;12022;52.266;10.522;2022-07-04T07:35:21;33.00;56.50
1538;DHT22;12022;52.266;10.522;2022-07-04T07:37:49;34.50;54.00
1538;DHT22;12022;52.266;10.522;2022-07-04T07:40:15;36.30;53.10
1538;DHT22;12022;52.266;10.522;2022-07-04T07:42:42;38.10;51.60
1538;DHT22;12022;52.266;10.522;2022-07-04T07:45:09;39.20;50.40
1538;DHT22;12022;52.266;10.522;2022-07-04T07:47:37;40.60;49.40
1538;DHT22;12022;52.266;10.522;2022-07-04T07:50:05;41.90;47.80
1538;DHT22;12022;52.266;10.522;2022-07-04T07:52:32;42.60;45.20
1538;DHT22;12022;52.266;10.522;2022-07-04T07:54:59;43.20;44.40
1538;DHT22;12022;52.266;10.522;2022-07-04T07:57:27;43.60;43.70
1538;DHT22;12022;52.266;10.522;2022-07-04T07:59:55;42.90;41.10
1538;DHT22;12022;52.266;10.522;2022-07-04T08:02:22;40.90;42.50
1538;DHT22;12022;52.266;10.522;2022-07-04T08:05:10;39.00;44.00
1538;DHT22;12022;52.266;10.522;2022-07-04T08:07:38;38.00;46.40
1538;DHT22;12022;52.266;10.522;2022-07-04T08:10:07;38.50;46.20
1538;DHT22;12022;52.266;10.522;2022-07-04T08:12:34;39.60;46.40
1538;DHT22;12022;52.266;10.522;2022-07-04T08:15:01;40.40;44.70
1538;DHT22;12022;52.266;10.522;2022-07-04T08:17:34;41.60;44.10
1538;DHT22;12022;52.266;10.522;2022-07-04T08:20:03;42.40;42.90
1538;DHT22;12022;52.266;10.522;2022-07-04T08:22:30;43.40;41.50
1538;DHT22;12022;52.266;10.522;2022-07-04T08:24:57;43.90;41.30
1538;DHT22;12022;52.266;10.522;2022-07-04T08:27:24;44.40;40.10
1538;DHT22;12022;52.266;10.522;2022-07-04T08:29:59;44.50;38.80
1538;DHT22;12022;52.266;10.522;2022-07-04T08:32:26;45.00;38.80
1538;DHT22;12022;52.266;10.522;2022-07-04T08:34:54;45.40;37.40
1538;DHT22;12022;52.266;10.522;2022-07-04T08:37:23;45.10;35.50
1538;DHT22;12022;52.266;10.522;2022-07-04T08:39:51;44.20;37.00
1538;DHT22;12022;52.266;10.522;2022-07-04T08:42:20;43.00;37.00
1538;DHT22;12022;52.266;10.522;2022-07-04T08:44:52;41.50;38.80
1538;DHT22;12022;52.266;10.522;2022-07-04T08:47:22;40.10;39.70
1538;DHT22;12022;52.266;10.522;2022-07-04T08:50:16;38.60;40.60
1538;DHT22;12022;52.266;10.522;2022-07-04T08:52:54;37.10;42.60
1538;DHT22;12022;52.266;10.522;2022-07-04T08:55:23;35.70;43.50
1538;DHT22;12022;52.266;10.522;2022-07-04T08:58:09;34.70;46.00
1538;DHT22;12022;52.266;10.522;2022-07-04T09:01:00;33.60;45.90
1538;DHT22;12022;52.266;10.522;2022-07-04T09:03:28;32.80;45.90
1538;DHT22;12022;52.266;10.522;2022-07-04T09:05:56;32.10;46.60
1538;DHT22;12022;52.266;10.522;2022-07-04T09:08:24;31.40;47.80
1538;DHT22;12022;52.266;10.522;2022-07-04T09:10:53;30.80;48.80
1538;DHT22;12022;52.266;10.522;2022-07-04T09:13:20;30.30;49.70
1538;DHT22;12022;52.266;10.522;2022-07-04T09:15:50;30.00;50.00
1538;DHT22;12022;52.266;10.522;2022-07-04T09:20:47;29.20;50.70
1538;DHT22;12022;52.266;10.522;2022-07-04T09:23:19;28.70;52.40
1538;DHT22;12022;52.266;10.522;2022-07-04T09:25:47;28.90;52.40
1538;DHT22;12022;52.266;10.522;2022-07-04T09:28:27;28.60;51.90
1538;DHT22;12022;52.266;10.522;2022-07-04T09:30:55;28.30;52.50
1538;DHT22;12022;52.266;10.522;2022-07-04T09:33:22;28.10;53.20
1538;DHT22;12022;52.266;10.522;2022-07-04T09:35:50;28.00;53.70
1538;DHT22;12022;52.266;10.522;2022-07-04T09:38:23;27.80;53.40
1538;DHT22;12022;52.266;10.522;2022-07-04T09:40:52;27.70;54.70
1538;DHT22;12022;52.266;10.522;2022-07-04T09:44:02;27.60;54.20
1538;DHT22;12022;52.266;10.522;2022-07-04T09:46:30;27.40;54.80
1538;DHT22;12022;52.266;10.522;2022-07-04T09:48:57;27.40;54.20
1538;DHT22;12022;52.266;10.522;2022-07-04T09:51:49;27.30;53.90
1538;DHT22;12022;52.266;10.522;2022-07-04T09:54:22;27.20;54.50
1538;DHT22;12022;52.266;10.522;2022-07-04T09:56:52;27.00;55.00
1538;DHT22;12022;52.266;10.522;2022-07-04T09:59:20;26.70;54.70
1538;DHT22;12022;52.266;10.522;2022-07-04T10:01:48;26.60;55.10
1538;DHT22;12022;52.266;10.522;2022-07-04T10:04:15;26.60;54.90
1538;DHT22;12022;52.266;10.522;2022-07-04T10:06:43;26.60;55.70
1538;DHT22;12022;52.266;10.522;2022-07-04T10:11:38;26.60;54.70
1538;DHT22;12022;52.266;10.522;2022-07-04T10:14:07;26.60;54.10
1538;DHT22;12022;52.266;10.522;2022-07-04T10:16:36;26.70;54.30
1538;DHT22;12022;52.266;10.522;2022-07-04T10:19:05;26.70;55.50
1538;DHT22;12022;52.266;10.522;2022-07-04T10:21:33;26.70;55.90
1538;DHT22;12022;52.266;10.522;2022-07-04T10:24:00;26.60;55.40
1538;DHT22;12022;52.266;10.522;2022-07-04T10:26:30;26.60;56.10
1538;DHT22;12022;52.266;10.522;2022-07-04T10:28:58;26.60;55.10
1538;DHT22;12022;52.266;10.522;2022-07-04T10:31:27;26.60;54.80
1538;DHT22;12022;52.266;10.522;2022-07-04T10:33:56;26.60;54.30
1538;DHT22;12022;52.266;10.522;2022-07-04T10:36:25;26.50;55.40
1538;DHT22;12022;52.266;10.522;2022-07-04T10:39:00;26.50;55.60
1538;DHT22;12022;52.266;10.522;2022-07-04T10:41:29;26.50;55.00
1538;DHT22;12022;52.266;10.522;2022-07-04T10:44:01;26.70;56.60
1538;DHT22;12022;52.266;10.522;2022-07-04T10:46:33;26.80;56.70
1538;DHT22;12022;52.266;10.522;2022-07-04T10:49:17;26.90;55.10
1538;DHT22;12022;52.266;10.522;2022-07-04T10:51:57;27.10;54.50
1538;DHT22;12022;52.266;10.522;2022-07-04T10:54:32;27.20;53.30
1538;DHT22;12022;52.266;10.522;2022-07-04T10:57:16;27.10;53.20
1538;DHT22;12022;52.266;10.522;2022-07-04T11:00:03;27.00;53.70
1538;DHT22;12022;52.266;10.522;2022-07-04T11:02:33;27.00;54.30
1538;DHT22;12022;52.266;10.522;2022-07-04T11:05:11;26.80;53.60
1538;DHT22;12022;52.266;10.522;2022-07-04T11:18:03;25.90;53.50
1538;DHT22;12022;52.266;10.522;2022-07-04T11:20:32;25.70;54.50
1538;DHT22;12022;52.266;10.522;2022-07-04T11:23:10;25.60;54.30
1538;DHT22;12022;52.266;10.522;2022-07-04T11:25:39;25.60;53.90
1538;DHT22;12022;52.266;10.522;2022-07-04T11:28:22;25.60;53.30
1538;DHT22;12022;52.266;10.522;2022-07-04T11:31:10;25.50;53.70
1538;DHT22;12022;52.266;10.522;2022-07-04T11:33:38;25.60;53.00
1538;DHT22;12022;52.266;10.522;2022-07-04T11:36:10;25.60;51.90
1538;DHT22;12022;52.266;10.522;2022-07-04T11:39:06;25.60;50.60
1538;DHT22;12022;52.266;10.522;2022-07-04T11:41:39;25.60;52.10
1538;DHT22;12022;52.266;10.522;2022-07-04T11:44:30;25.50;52.30
1538;DHT22;12022;52.266;10.522;2022-07-04T11:47:18;25.50;52.10
1538;DHT22;12022;52.266;10.522;2022-07-04T11:49:55;25.60;51.70
1538;DHT22;12022;52.266;10.522;2022-07-04T11:52:29;25.60;52.00
1538;DHT22;12022;52.266;10.522;2022-07-04T11:55:17;25.60;52.70
1538;DHT22;12022;52.266;10.522;2022-07-04T11:57:49;25.70;52.70
1538;DHT22;12022;52.266;10.522;2022-07-04T12:00:25;25.90;52.70
1538;DHT22;12022;52.266;10.522;2022-07-04T12:02:57;26.00;51.70
1538;DHT22;12022;52.266;10.522;2022-07-04T12:05:25;26.00;51.10
1538;DHT22;12022;52.266;10.522;2022-07-04T12:07:52;26.00;51.40
1538;DHT22;12022;52.266;10.522;2022-07-04T12:10:39;25.90;51.30
1538;DHT22;12022;52.266;10.522;2022-07-04T12:13:15;25.90;51.00
1538;DHT22;12022;52.266;10.522;2022-07-04T12:15:49;26.00;50.70
1538;DHT22;12022;52.266;10.522;2022-07-04T12:20:48;26.20;50.10
1538;DHT22;12022;52.266;10.522;2022-07-04T12:23:16;26.20;49.40
1538;DHT22;12022;52.266;10.522;2022-07-04T12:25:46;26.20;49.80
1538;DHT22;12022;52.266;10.522;2022-07-04T12:28:14;26.20;49.60
1538;DHT22;12022;52.266;10.522;2022-07-04T12:33:24;26.20;51.90
1538;DHT22;12022;52.266;10.522;2022-07-04T12:35:56;26.20;50.50
1538;DHT22;12022;52.266;10.522;2022-07-04T12:41:11;26.30;50.00
1538;DHT22;12022;52.266;10.522;2022-07-04T12:48:42;26.50;49.90
1538;DHT22;12022;52.266;10.522;2022-07-04T12:51:11;26.60;49.50
1538;DHT22;12022;52.266;10.522;2022-07-04T12:53:41;26.90;49.30
1538;DHT22;12022;52.266;10.522;2022-07-04T12:56:09;27.20;48.70
1538;DHT22;12022;52.266;10.522;2022-07-04T12:58:37;27.40;48.60
1538;DHT22;12022;52.266;10.522;2022-07-04T13:01:04;27.70;49.50
1538;DHT22;12022;52.266;10.522;2022-07-04T13:03:31;27.80;49.20
1538;DHT22;12022;52.266;10.522;2022-07-04T13:05:58;27.90;48.50
1538;DHT22;12022;52.266;10.522;2022-07-04T13:08:25;28.00;49.00
1538;DHT22;12022;52.266;10.522;2022-07-04T13:10:52;28.00;48.70
1538;DHT22;12022;52.266;10.522;2022-07-04T13:13:39;28.00;48.20
1538;DHT22;12022;52.266;10.522;2022-07-04T13:16:06;28.00;47.40
1538;DHT22;12022;52.266;10.522;2022-07-04T13:18:34;28.00;48.40
1538;DHT22;12022;52.266;10.522;2022-07-04T13:21:02;28.00;47.30
1538;DHT22;12022;52.266;10.522;2022-07-04T13:23:30;27.90;47.70
1538;DHT22;12022;52.266;10.522;2022-07-04T13:25:57;27.90;47.10
1538;DHT22;12022;52.266;10.522;2022-07-04T13:28:24;27.90;47.00
1538;DHT22;12022;52.266;10.522;2022-07-04T13:30:51;28.00;48.60
1538;DHT22;12022;52.266;10.522;2022-07-04T13:33:18;28.10;47.70
1538;DHT22;12022;52.266;10.522;2022-07-04T13:35:45;28.10;47.50
1538;DHT22;12022;52.266;10.522;2022-07-04T13:38:12;28.10;47.10
1538;DHT22;12022;52.266;10.522;2022-07-04T13:40:44;28.10;47.60
1538;DHT22;12022;52.266;10.522;2022-07-04T13:43:12;28.00;48.10
1538;DHT22;12022;52.266;10.522;2022-07-04T13:45:40;27.90;47.50
1538;DHT22;12022;52.266;10.522;2022-07-04T13:48:07;27.90;48.40
1538;DHT22;12022;52.266;10.522;2022-07-04T13:50:35;27.80;48.60
1538;DHT22;12022;52.266;10.522;2022-07-04T13:53:06;27.80;48.80
1538;DHT22;12022;52.266;10.522;2022-07-04T13:55:34;27.70;47.90
1538;DHT22;12022;52.266;10.522;2022-07-04T13:58:07;27.50;48.10
1538;DHT22;12022;52.266;10.522;2022-07-04T14:00:35;27.30;47.50
1538;DHT22;12022;52.266;10.522;2022-07-04T14:03:04;27.20;48.70
1538;DHT22;12022;52.266;10.522;2022-07-04T14:05:31;27.10;48.40
1538;DHT22;12022;52.266;10.522;2022-07-04T14:07:59;27.10;47.80
1538;DHT22;12022;52.266;10.522;2022-07-04T14:10:26;27.10;46.60
1538;DHT22;12022;52.266;10.522;2022-07-04T14:12:54;27.10;47.50
1538;DHT22;12022;52.266;10.522;2022-07-04T14:15:21;27.10;47.40
1538;DHT22;12022;52.266;10.522;2022-07-04T14:17:48;27.20;47.60
1538;DHT22;12022;52.266;10.522;2022-07-04T14:20:15;27.10;48.10
1538;DHT22;12022;52.266;10.522;2022-07-04T14:22:45;27.00;47.90
1538;DHT22;12022;52.266;10.522;2022-07-04T14:25:12;26.90;47.50
1538;DHT22;12022;52.266;10.522;2022-07-04T14:27:39;26.80;48.30
1538;DHT22;12022;52.266;10.522;2022-07-04T14:30:06;26.70;47.60
1538;DHT22;12022;52.266;10.522;2022-07-04T14:32:38;26.60;48.00
1538;DHT22;12022;52.266;10.522;2022-07-04T14:35:08;26.60;48.30
1538;DHT22;12022;52.266;10.522;2022-07-04T14:37:38;26.70;48.40
1538;DHT22;12022;52.266;10.522;2022-07-04T14:40:05;26.80;48.90
1538;DHT22;12022;52.266;10.522;2022-07-04T14:42:36;27.00;49.00
1538;DHT22;12022;52.266;10.522;2022-07-04T14:45:06;27.10;48.80
1538;DHT22;12022;52.266;10.522;2022-07-04T14:47:33;27.10;48.80
1538;DHT22;12022;52.266;10.522;2022-07-04T14:50:02;27.00;48.90
1538;DHT22;12022;52.266;10.522;2022-07-04T14:52:29;26.90;48.50
1538;DHT22;12022;52.266;10.522;2022-07-04T14:54:58;26.80;48.80
1538;DHT22;12022;52.266;10.522;2022-07-04T14:57:29;26.80;50.30
1538;DHT22;12022;52.266;10.522;2022-07-04T14:59:57;26.90;48.70
1538;DHT22;12022;52.266;10.522;2022-07-04T15:02:24;26.90;50.00
1538;DHT22;12022;52.266;10.522;2022-07-04T15:04:51;26.90;50.10
1538;DHT22;12022;52.266;10.522;2022-07-04T15:07:19;26.70;49.60
1538;DHT22;12022;52.266;10.522;2022-07-04T15:09:46;26.60;49.00
1538;DHT22;12022;52.266;10.522;2022-07-04T15:12:13;26.60;50.20
1538;DHT22;12022;52.266;10.522;2022-07-04T15:14:40;26.60;49.80
1538;DHT22;12022;52.266;10.522;2022-07-04T15:17:06;26.50;49.60
1538;DHT22;12022;52.266;10.522;2022-07-04T15:19:38;26.50;50.80
1538;DHT22;12022;52.266;10.522;2022-07-04T15:22:24;26.40;50.30
1538;DHT22;12022;52.266;10.522;2022-07-04T15:25:09;26.50;50.20
1538;DHT22;12022;52.266;10.522;2022-07-04T15:27:36;26.50;50.90
1538;DHT22;12022;52.266;10.522;2022-07-04T15:30:04;26.80;50.10
1538;DHT22;12022;52.266;10.522;2022-07-04T15:32:31;27.20;50.30
1538;DHT22;12022;52.266;10.522;2022-07-04T15:34:58;27.50;50.40
1538;DHT22;12022;52.266;10.522;2022-07-04T15:37:40;27.60;49.00
1538;DHT22;12022;52.266;10.522;2022-07-04T15:40:07;27.70;49.10
1538;DHT22;12022;52.266;10.522;2022-07-04T15:42:35;27.70;48.30
1538;DHT22;12022;52.266;10.522;2022-07-04T15:45:02;27.70;48.90
1538;DHT22;12022;52.266;10.522;2022-07-04T15:47:29;27.70;48.60
1538;DHT22;12022;52.266;10.522;2022-07-04T15:49:56;27.80;48.20
1538;DHT22;12022;52.266;10.522;2022-07-04T15:52:23;27.80;48.90
1538;DHT22;12022;52.266;10.522;2022-07-04T15:54:50;27.60;48.50
1538;DHT22;12022;52.266;10.522;2022-07-04T15:57:17;27.60;48.20
1538;DHT22;12022;52.266;10.522;2022-07-04T15:59:45;27.50;47.60
1538;DHT22;12022;52.266;10.522;2022-07-04T16:02:12;27.50;48.10
1538;DHT22;12022;52.266;10.522;2022-07-04T16:04:39;27.70;48.40
1538;DHT22;12022;52.266;10.522;2022-07-04T16:07:06;27.30;47.50
1538;DHT22;12022;52.266;10.522;2022-07-04T16:09:37;27.20;48.30
1538;DHT22;12022;52.266;10.522;2022-07-04T16:12:04;27.00;47.40